createdAt,value
2023-01-19T00:02:13.066Z,9.77
2023-01-19T00:07:17.759Z,11.37
2023-01-19T00:12:20.906Z,9.77
2023-01-19T00:17:24.076Z,9.50
2023-01-19T00:22:28.604Z,9.87
2023-01-19T00:27:35.029Z,9.23
2023-01-19T00:32:38.341Z,9.23
2023-01-19T00:37:46.160Z,9.90
2023-01-19T00:42:49.299Z,9.83
2023-01-19T00:47:54.832Z,8.53
2023-01-19T00:53:01.457Z,9.33
2023-01-19T00:58:04.817Z,8.60
2023-01-19T01:03:08.224Z,9.50
2023-01-19T01:08:13.833Z,8.87
2023-01-19T01:13:20.592Z,9.70
2023-01-19T01:18:26.342Z,8.80
2023-01-19T01:23:31.081Z,9.00
2023-01-19T01:28:34.190Z,7.73
2023-01-19T01:33:39.842Z,8.83
2023-01-19T01:38:44.841Z,6.97
2023-01-19T01:43:50.318Z,7.30
2023-01-19T01:48:58.219Z,6.73
2023-01-19T01:54:16.340Z,8.07
2023-01-19T01:59:26.763Z,8.03
2023-01-19T02:04:31.698Z,7.47
2023-01-19T02:09:55.595Z,6.57
2023-01-19T02:14:58.709Z,7.53
2023-01-19T02:20:01.864Z,8.70
2023-01-19T02:25:08.622Z,8.00
2023-01-19T02:30:13.710Z,7.70
2023-01-19T02:35:17.157Z,8.73
2023-01-19T02:40:25.047Z,9.07
2023-01-19T02:45:28.801Z,8.30
2023-01-19T02:50:46.275Z,9.10
2023-01-19T02:55:58.325Z,8.40
2023-01-19T03:01:12.563Z,7.80
2023-01-19T03:06:25.793Z,8.33
2023-01-19T03:11:38.277Z,8.90
2023-01-19T03:16:44.383Z,9.07
2023-01-19T03:21:51.573Z,10.17
2023-01-19T03:27:00.863Z,9.20
2023-01-19T03:32:09.118Z,8.67
2023-01-19T03:37:14.731Z,9.30
2023-01-19T03:42:20.338Z,9.03
2023-01-19T03:47:24.826Z,8.33
2023-01-19T03:52:29.737Z,9.33
2023-01-19T03:57:34.366Z,8.17
2023-01-19T04:02:37.590Z,9.37
2023-01-19T04:07:40.688Z,8.90
2023-01-19T04:12:45.397Z,7.60
2023-01-19T04:17:48.468Z,9.17
2023-01-19T04:22:51.590Z,8.53
2023-01-19T04:27:58.020Z,8.50
2023-01-19T04:33:01.472Z,11.10
2023-01-19T04:38:04.760Z,10.87
2023-01-19T04:43:10.048Z,14.20
2023-01-19T04:48:13.412Z,10.20
2023-01-19T04:53:18.503Z,10.83
2023-01-19T04:58:23.162Z,10.07
2023-01-19T05:03:27.011Z,8.80
2023-01-19T05:08:30.855Z,10.03
2023-01-19T05:13:36.645Z,9.43
2023-01-19T05:18:39.727Z,10.87
2023-01-19T05:23:42.851Z,9.77
2023-01-19T05:28:47.387Z,9.07
2023-01-19T05:33:50.480Z,10.70
2023-01-19T05:38:53.565Z,8.80
2023-01-19T05:43:58.261Z,8.63
2023-01-19T05:49:04.144Z,9.30
2023-01-19T05:54:08.305Z,14.17
2023-01-19T05:59:13.066Z,17.03
2023-01-19T06:04:16.155Z,17.47
2023-01-19T06:09:19.283Z,11.83
2023-01-19T06:14:23.858Z,13.47
2023-01-19T06:19:27.167Z,9.53
2023-01-19T06:24:31.077Z,9.57
2023-01-19T06:29:35.966Z,10.67
2023-01-19T06:34:40.516Z,9.57
2023-01-19T06:39:45.415Z,9.70
2023-01-19T06:44:49.905Z,14.40
2023-01-19T06:49:54.112Z,17.67
2023-01-19T06:54:57.576Z,14.90
2023-01-19T07:00:05.372Z,12.17
2023-01-19T07:05:09.396Z,12.47
2023-01-19T07:10:15.691Z,20.47
2023-01-19T07:15:22.681Z,16.70
2023-01-19T07:20:25.833Z,14.10
2023-01-19T07:25:29.061Z,10.73
2023-01-19T07:30:33.596Z,11.60
2023-01-19T07:35:36.829Z,11.83
2023-01-19T07:40:39.934Z,9.97
2023-01-19T07:45:45.178Z,11.23
2023-01-19T07:50:48.445Z,9.67
2023-01-19T07:55:56.507Z,10.67
2023-01-19T08:01:01.139Z,10.17
2023-01-19T08:06:05.342Z,8.63
2023-01-19T08:11:08.521Z,10.30
2023-01-19T08:16:12.984Z,9.33
2023-01-19T08:21:16.548Z,8.90
2023-01-19T08:26:20.598Z,8.90
2023-01-19T08:31:26.290Z,8.87
2023-01-19T08:36:29.661Z,8.77
2023-01-19T08:41:32.863Z,8.57
2023-01-19T08:46:37.319Z,9.60
2023-01-19T08:51:40.462Z,8.07
2023-01-19T08:56:43.601Z,7.87
2023-01-19T09:01:48.261Z,7.93
2023-01-19T09:06:51.470Z,8.07
2023-01-19T09:11:55.638Z,7.93
2023-01-19T09:17:00.248Z,8.10
2023-01-19T09:22:03.324Z,9.73
2023-01-19T09:27:06.578Z,8.40
2023-01-19T09:32:11.439Z,8.63
2023-01-19T09:37:15.345Z,8.93
2023-01-19T09:42:25.503Z,8.77
2023-01-19T09:47:33.065Z,8.67
2023-01-19T09:52:40.776Z,8.43
2023-01-19T09:57:45.146Z,8.83
2023-01-19T10:02:53.172Z,8.60
2023-01-19T10:08:10.248Z,10.20
2023-01-19T10:13:26.847Z,8.17
2023-01-19T10:18:47.554Z,7.77
2023-01-19T10:23:54.682Z,7.47
2023-01-19T10:29:04.071Z,7.80
2023-01-19T10:34:10.949Z,8.27
2023-01-19T10:39:18.965Z,7.07
2023-01-19T10:44:28.106Z,8.30
2023-01-19T10:49:38.872Z,7.60
2023-01-19T10:54:44.627Z,8.93
2023-01-19T10:59:51.150Z,8.77
2023-01-19T11:04:57.839Z,9.10
2023-01-19T11:10:21.239Z,8.00
2023-01-19T11:15:29.913Z,8.47
2023-01-19T11:20:50.139Z,7.60
2023-01-19T11:25:56.768Z,7.60
2023-01-19T11:31:01.964Z,8.30
2023-01-19T11:36:17.029Z,7.27
2023-01-19T11:41:23.846Z,8.00
2023-01-19T11:46:33.963Z,8.30
2023-01-19T11:51:53.291Z,8.07
2023-01-19T11:56:59.781Z,7.63
2023-01-19T12:02:14.786Z,7.73
2023-01-19T12:07:24.941Z,7.90
2023-01-19T12:12:31.968Z,7.63
2023-01-19T12:17:37.978Z,7.63
2023-01-19T12:22:53.566Z,7.57
2023-01-19T12:27:57.867Z,7.73
2023-01-19T12:33:22.244Z,7.40
2023-01-19T12:38:42.051Z,7.07
2023-01-19T12:43:45.265Z,6.93
2023-01-19T12:48:48.522Z,7.30
2023-01-19T12:53:56.418Z,6.87
2023-01-19T12:59:00.112Z,6.73
2023-01-19T13:04:06.735Z,6.90
2023-01-19T13:09:32.446Z,5.73
2023-01-19T13:14:38.311Z,5.77
2023-01-19T13:20:07.163Z,7.03
2023-01-19T13:25:13.990Z,6.20
2023-01-19T13:30:18.915Z,5.97
2023-01-19T13:35:23.682Z,6.20
2023-01-19T13:40:38.287Z,8.03
2023-01-19T13:45:41.838Z,6.20
2023-01-19T13:50:58.314Z,6.63
2023-01-19T13:56:11.026Z,6.13
2023-01-19T14:01:24.071Z,7.13
2023-01-19T14:06:38.730Z,6.73
2023-01-19T14:11:43.323Z,7.13
2023-01-19T14:16:46.440Z,7.80
2023-01-19T14:22:00.528Z,7.10
2023-01-19T14:27:22.743Z,6.87
2023-01-19T14:32:27.951Z,6.80
2023-01-19T14:37:32.698Z,6.97
2023-01-19T14:42:39.847Z,7.27
2023-01-19T14:47:45.797Z,5.97
2023-01-19T14:52:55.610Z,6.37
2023-01-19T14:58:02.340Z,6.63
2023-01-19T15:03:06.189Z,5.50
2023-01-19T15:08:12.697Z,5.20
2023-01-19T15:13:21.602Z,6.73
2023-01-19T15:18:27.732Z,7.07
2023-01-19T15:23:30.929Z,6.10
2023-01-19T15:28:35.601Z,6.43
2023-01-19T15:33:38.798Z,6.43
2023-01-19T15:38:42.055Z,6.77
2023-01-19T15:43:48.052Z,8.27
2023-01-19T15:48:52.435Z,8.13
2023-01-19T15:53:56.617Z,7.50
2023-01-19T15:59:02.706Z,6.93
2023-01-19T16:04:09.490Z,6.67
2023-01-19T16:09:16.837Z,6.83
2023-01-19T16:14:21.544Z,7.10
2023-01-19T16:19:26.971Z,7.27
2023-01-19T16:24:30.706Z,6.33
2023-01-19T16:29:35.212Z,6.07
2023-01-19T16:34:38.286Z,6.33
2023-01-19T16:39:43.796Z,9.10
2023-01-19T16:44:48.789Z,9.00
2023-01-19T16:49:52.854Z,16.97
2023-01-19T16:54:56.170Z,12.33
2023-01-19T17:00:00.977Z,9.07
2023-01-19T17:05:04.480Z,10.07
2023-01-19T17:10:09.353Z,8.40
2023-01-19T17:15:14.519Z,7.90
2023-01-19T17:20:18.113Z,7.13
2023-01-19T17:25:21.216Z,5.87
2023-01-19T17:30:25.791Z,5.60
2023-01-19T17:35:29.051Z,6.90
2023-01-19T17:40:32.445Z,6.67
2023-01-19T17:45:38.260Z,9.70
2023-01-19T17:50:41.372Z,9.13
2023-01-19T17:55:44.559Z,6.60
2023-01-19T18:00:49.184Z,6.67
2023-01-19T18:05:55.596Z,13.53
2023-01-19T18:11:00.290Z,8.40
2023-01-19T18:16:11.690Z,7.00
2023-01-19T18:21:16.164Z,6.93
2023-01-19T18:26:22.041Z,7.27
2023-01-19T18:31:27.496Z,6.70
2023-01-19T18:36:32.694Z,8.50
2023-01-19T18:41:40.462Z,7.83
2023-01-19T18:46:44.962Z,6.60
2023-01-19T18:51:48.121Z,6.53
2023-01-19T18:56:51.687Z,6.30
2023-01-19T19:01:56.187Z,6.33
2023-01-19T19:06:59.421Z,6.97
2023-01-19T19:12:02.786Z,6.67
2023-01-19T19:17:07.421Z,15.97
2023-01-19T19:22:10.587Z,9.47
2023-01-19T19:27:14.426Z,7.40
2023-01-19T19:32:20.547Z,6.80
2023-01-19T19:37:23.898Z,6.57
2023-01-19T19:42:28.956Z,6.03
2023-01-19T19:47:33.944Z,6.00
2023-01-19T19:52:39.743Z,6.30
2023-01-19T19:57:42.939Z,7.07
2023-01-19T20:02:47.475Z,7.00
2023-01-19T20:07:50.971Z,6.13
2023-01-19T20:12:54.184Z,6.27
2023-01-19T20:17:58.799Z,6.67
2023-01-19T20:23:02.591Z,6.60
2023-01-19T20:28:06.153Z,5.47
2023-01-19T20:33:10.746Z,6.73
2023-01-19T20:38:13.931Z,7.43
2023-01-19T20:43:17.071Z,6.63
2023-01-19T20:48:21.564Z,5.77
2023-01-19T20:53:24.821Z,7.90
2023-01-19T20:58:27.951Z,7.07
2023-01-19T21:03:34.794Z,6.47
2023-01-19T21:08:38.733Z,5.47
2023-01-19T21:13:41.972Z,6.13
2023-01-19T21:18:46.438Z,5.70
2023-01-19T21:23:50.213Z,5.77
2023-01-19T21:28:53.498Z,5.67
2023-01-19T21:33:58.615Z,6.20
2023-01-19T21:39:01.765Z,7.53
2023-01-19T21:44:05.133Z,9.57
2023-01-19T21:49:14.409Z,8.20
2023-01-19T21:54:17.792Z,8.70
2023-01-19T21:59:21.005Z,8.13
2023-01-19T22:04:25.465Z,7.30
2023-01-19T22:09:28.748Z,8.10
2023-01-19T22:14:32.001Z,8.63
2023-01-19T22:19:36.534Z,7.60
2023-01-19T22:24:39.729Z,6.93
2023-01-19T22:29:42.888Z,7.33
2023-01-19T22:34:48.876Z,7.63
2023-01-19T22:39:51.991Z,7.27
2023-01-19T22:44:55.134Z,6.70
2023-01-19T22:49:59.687Z,6.90
2023-01-19T22:55:03.865Z,7.23
2023-01-19T23:00:09.125Z,6.80
2023-01-19T23:05:14.169Z,6.60
2023-01-19T23:10:18.126Z,6.87
2023-01-19T23:15:21.216Z,6.13
2023-01-19T23:20:25.827Z,5.70
2023-01-19T23:25:29.109Z,6.20
2023-01-19T23:30:32.215Z,7.70
2023-01-19T23:35:37.172Z,7.50
2023-01-19T23:40:40.250Z,6.67
2023-01-19T23:45:43.334Z,7.17
2023-01-19T23:50:47.883Z,7.07
2023-01-19T23:55:50.963Z,6.90
